sensor_id;sensor_type;location;lat;lon;timestamp;P1;durP1;ratioP1;P2;durP2;ratioP2
64520;SDS011;50896;46.714;17.322;2023-05-13T00:00:32;8.93;;;6.43;;
64520;SDS011;50896;46.714;17.322;2023-05-13T00:02:59;8.15;;;5.97;;
64520;SDS011;50896;46.714;17.322;2023-05-13T00:05:26;10.90;;;6.60;;
64520;SDS011;50896;46.714;17.322;2023-05-13T00:07:52;7.72;;;5.70;;
64520;SDS011;50896;46.714;17.322;2023-05-13T00:10:19;8.95;;;6.15;;
64520;SDS011;50896;46.714;17.322;2023-05-13T00:12:47;8.52;;;6.82;;
64520;SDS011;50896;46.714;17.322;2023-05-13T00:15:14;7.20;;;6.25;;
64520;SDS011;50896;46.714;17.322;2023-05-13T00:17:41;9.18;;;6.47;;
64520;SDS011;50896;46.714;17.322;2023-05-13T00:20:07;8.73;;;6.45;;
64520;SDS011;50896;46.714;17.322;2023-05-13T00:22:34;11.05;;;7.32;;
64520;SDS011;50896;46.714;17.322;2023-05-13T00:25:01;10.88;;;7.63;;
64520;SDS011;50896;46.714;17.322;2023-05-13T00:27:29;8.85;;;6.88;;
64520;SDS011;50896;46.714;17.322;2023-05-13T00:29:58;11.70;;;6.88;;
64520;SDS011;50896;46.714;17.322;2023-05-13T00:32:27;11.00;;;7.68;;
64520;SDS011;50896;46.714;17.322;2023-05-13T00:34:54;10.20;;;7.15;;
64520;SDS011;50896;46.714;17.322;2023-05-13T00:37:21;9.88;;;7.32;;
64520;SDS011;50896;46.714;17.322;2023-05-13T00:39:48;10.18;;;7.10;;
64520;SDS011;50896;46.714;17.322;2023-05-13T00:42:15;9.82;;;7.70;;
64520;SDS011;50896;46.714;17.322;2023-05-13T00:44:42;11.38;;;7.50;;
64520;SDS011;50896;46.714;17.322;2023-05-13T00:47:09;13.18;;;8.15;;
64520;SDS011;50896;46.714;17.322;2023-05-13T00:49:37;13.13;;;7.93;;
64520;SDS011;50896;46.714;17.322;2023-05-13T00:52:04;7.15;;;6.43;;
64520;SDS011;50896;46.714;17.322;2023-05-13T00:54:31;9.48;;;7.07;;
64520;SDS011;50896;46.714;17.322;2023-05-13T00:56:58;10.27;;;7.70;;
64520;SDS011;50896;46.714;17.322;2023-05-13T00:59:25;11.15;;;7.28;;
64520;SDS011;50896;46.714;17.322;2023-05-13T01:13:25;12.00;;;8.23;;
64520;SDS011;50896;46.714;17.322;2023-05-13T01:16:01;9.63;;;7.05;;
64520;SDS011;50896;46.714;17.322;2023-05-13T01:18:35;8.90;;;7.25;;
64520;SDS011;50896;46.714;17.322;2023-05-13T01:21:04;10.32;;;7.90;;
64520;SDS011;50896;46.714;17.322;2023-05-13T01:23:31;13.48;;;7.70;;
64520;SDS011;50896;46.714;17.322;2023-05-13T01:25:58;11.27;;;8.32;;
64520;SDS011;50896;46.714;17.322;2023-05-13T01:28:26;10.48;;;7.53;;
64520;SDS011;50896;46.714;17.322;2023-05-13T01:30:53;10.13;;;7.97;;
64520;SDS011;50896;46.714;17.322;2023-05-13T01:33:24;8.95;;;7.90;;
64520;SDS011;50896;46.714;17.322;2023-05-13T01:35:51;10.73;;;7.55;;
64520;SDS011;50896;46.714;17.322;2023-05-13T01:38:20;10.63;;;7.80;;
64520;SDS011;50896;46.714;17.322;2023-05-13T01:40:51;12.15;;;8.18;;
64520;SDS011;50896;46.714;17.322;2023-05-13T01:43:19;10.48;;;7.60;;
64520;SDS011;50896;46.714;17.322;2023-05-13T01:45:46;8.13;;;6.72;;
64520;SDS011;50896;46.714;17.322;2023-05-13T01:48:13;8.93;;;7.13;;
64520;SDS011;50896;46.714;17.322;2023-05-13T01:50:43;12.30;;;7.38;;
64520;SDS011;50896;46.714;17.322;2023-05-13T01:53:10;11.88;;;7.50;;
64520;SDS011;50896;46.714;17.322;2023-05-13T01:55:37;9.80;;;7.60;;
64520;SDS011;50896;46.714;17.322;2023-05-13T01:58:04;10.48;;;7.97;;
64520;SDS011;50896;46.714;17.322;2023-05-13T02:00:31;10.07;;;7.43;;
64520;SDS011;50896;46.714;17.322;2023-05-13T02:02:58;8.57;;;7.43;;
64520;SDS011;50896;46.714;17.322;2023-05-13T02:05:25;9.13;;;7.13;;
64520;SDS011;50896;46.714;17.322;2023-05-13T02:07:53;8.65;;;7.10;;
64520;SDS011;50896;46.714;17.322;2023-05-13T02:10:20;9.75;;;7.20;;
64520;SDS011;50896;46.714;17.322;2023-05-13T02:12:47;9.93;;;7.20;;
64520;SDS011;50896;46.714;17.322;2023-05-13T02:15:14;10.43;;;6.97;;
64520;SDS011;50896;46.714;17.322;2023-05-13T02:17:41;9.10;;;7.22;;
64520;SDS011;50896;46.714;17.322;2023-05-13T02:20:08;9.82;;;7.60;;
64520;SDS011;50896;46.714;17.322;2023-05-13T02:22:35;9.25;;;7.28;;
64520;SDS011;50896;46.714;17.322;2023-05-13T02:25:05;10.68;;;7.63;;
64520;SDS011;50896;46.714;17.322;2023-05-13T02:27:32;10.05;;;6.95;;
64520;SDS011;50896;46.714;17.322;2023-05-13T02:29:59;11.38;;;7.47;;
64520;SDS011;50896;46.714;17.322;2023-05-13T02:32:26;10.60;;;7.68;;
64520;SDS011;50896;46.714;17.322;2023-05-13T02:34:53;10.35;;;7.57;;
64520;SDS011;50896;46.714;17.322;2023-05-13T02:37:19;9.45;;;7.07;;
64520;SDS011;50896;46.714;17.322;2023-05-13T02:39:55;10.73;;;6.70;;
64520;SDS011;50896;46.714;17.322;2023-05-13T02:42:22;10.70;;;7.55;;
64520;SDS011;50896;46.714;17.322;2023-05-13T02:44:49;10.48;;;7.15;;
64520;SDS011;50896;46.714;17.322;2023-05-13T02:47:16;8.85;;;7.25;;
64520;SDS011;50896;46.714;17.322;2023-05-13T02:49:43;9.55;;;7.90;;
64520;SDS011;50896;46.714;17.322;2023-05-13T02:52:10;11.48;;;7.90;;
64520;SDS011;50896;46.714;17.322;2023-05-13T02:54:37;12.15;;;7.95;;
64520;SDS011;50896;46.714;17.322;2023-05-13T02:57:04;9.48;;;7.82;;
64520;SDS011;50896;46.714;17.322;2023-05-13T02:59:32;11.30;;;7.75;;
64520;SDS011;50896;46.714;17.322;2023-05-13T03:01:58;10.57;;;7.35;;
64520;SDS011;50896;46.714;17.322;2023-05-13T03:04:25;11.50;;;8.30;;
64520;SDS011;50896;46.714;17.322;2023-05-13T03:06:52;10.02;;;7.63;;
64520;SDS011;50896;46.714;17.322;2023-05-13T03:09:19;12.25;;;8.15;;
64520;SDS011;50896;46.714;17.322;2023-05-13T03:11:46;11.65;;;7.85;;
64520;SDS011;50896;46.714;17.322;2023-05-13T03:14:13;10.73;;;7.85;;
64520;SDS011;50896;46.714;17.322;2023-05-13T03:16:40;11.18;;;8.18;;
64520;SDS011;50896;46.714;17.322;2023-05-13T03:19:07;12.73;;;8.60;;
64520;SDS011;50896;46.714;17.322;2023-05-13T03:21:34;9.30;;;8.23;;
64520;SDS011;50896;46.714;17.322;2023-05-13T03:24:01;11.18;;;7.72;;
64520;SDS011;50896;46.714;17.322;2023-05-13T03:26:28;10.75;;;8.13;;
64520;SDS011;50896;46.714;17.322;2023-05-13T03:28:55;11.20;;;7.50;;
64520;SDS011;50896;46.714;17.322;2023-05-13T03:31:22;11.52;;;8.13;;
64520;SDS011;50896;46.714;17.322;2023-05-13T03:33:49;8.07;;;7.15;;
64520;SDS011;50896;46.714;17.322;2023-05-13T03:36:16;11.98;;;7.93;;
64520;SDS011;50896;46.714;17.322;2023-05-13T03:38:43;11.55;;;8.25;;
64520;SDS011;50896;46.714;17.322;2023-05-13T03:41:10;10.80;;;7.88;;
64520;SDS011;50896;46.714;17.322;2023-05-13T03:43:36;10.10;;;8.30;;
64520;SDS011;50896;46.714;17.322;2023-05-13T03:46:07;9.27;;;7.60;;
64520;SDS011;50896;46.714;17.322;2023-05-13T03:48:36;10.68;;;7.68;;
64520;SDS011;50896;46.714;17.322;2023-05-13T03:51:03;10.35;;;7.63;;
64520;SDS011;50896;46.714;17.322;2023-05-13T03:53:30;12.82;;;8.10;;
64520;SDS011;50896;46.714;17.322;2023-05-13T03:55:57;10.02;;;7.57;;
64520;SDS011;50896;46.714;17.322;2023-05-13T03:58:26;13.00;;;8.15;;
64520;SDS011;50896;46.714;17.322;2023-05-13T04:00:52;10.20;;;8.00;;
64520;SDS011;50896;46.714;17.322;2023-05-13T04:03:19;9.73;;;7.63;;
64520;SDS011;50896;46.714;17.322;2023-05-13T04:05:47;10.77;;;7.68;;
64520;SDS011;50896;46.714;17.322;2023-05-13T04:08:14;8.50;;;7.60;;
64520;SDS011;50896;46.714;17.322;2023-05-13T04:10:41;10.43;;;7.60;;
64520;SDS011;50896;46.714;17.322;2023-05-13T04:13:08;9.73;;;8.25;;
64520;SDS011;50896;46.714;17.322;2023-05-13T04:15:35;10.50;;;8.43;;
64520;SDS011;50896;46.714;17.322;2023-05-13T04:18:04;12.15;;;8.68;;
64520;SDS011;50896;46.714;17.322;2023-05-13T04:20:32;14.95;;;8.48;;
64520;SDS011;50896;46.714;17.322;2023-05-13T04:23:00;11.18;;;8.88;;
64520;SDS011;50896;46.714;17.322;2023-05-13T04:25:27;10.32;;;8.02;;
64520;SDS011;50896;46.714;17.322;2023-05-13T04:27:54;11.63;;;8.32;;
64520;SDS011;50896;46.714;17.322;2023-05-13T04:30:27;11.35;;;8.00;;
64520;SDS011;50896;46.714;17.322;2023-05-13T04:32:54;10.68;;;8.18;;
64520;SDS011;50896;46.714;17.322;2023-05-13T04:35:21;10.75;;;8.23;;
64520;SDS011;50896;46.714;17.322;2023-05-13T04:37:52;11.60;;;8.43;;
64520;SDS011;50896;46.714;17.322;2023-05-13T04:40:19;13.27;;;8.35;;
64520;SDS011;50896;46.714;17.322;2023-05-13T04:42:48;9.65;;;8.23;;
64520;SDS011;50896;46.714;17.322;2023-05-13T04:45:28;10.35;;;8.55;;
64520;SDS011;50896;46.714;17.322;2023-05-13T04:47:57;12.65;;;9.15;;
64520;SDS011;50896;46.714;17.322;2023-05-13T04:50:24;9.55;;;8.38;;
64520;SDS011;50896;46.714;17.322;2023-05-13T04:52:52;11.85;;;9.23;;
64520;SDS011;50896;46.714;17.322;2023-05-13T04:55:21;11.38;;;9.52;;
64520;SDS011;50896;46.714;17.322;2023-05-13T04:57:48;11.75;;;9.07;;
64520;SDS011;50896;46.714;17.322;2023-05-13T05:00:16;10.95;;;9.40;;
64520;SDS011;50896;46.714;17.322;2023-05-13T05:02:44;10.68;;;8.88;;
64520;SDS011;50896;46.714;17.322;2023-05-13T05:05:11;12.25;;;8.70;;
64520;SDS011;50896;46.714;17.322;2023-05-13T05:07:38;12.93;;;9.10;;
64520;SDS011;50896;46.714;17.322;2023-05-13T05:10:07;11.90;;;9.73;;
64520;SDS011;50896;46.714;17.322;2023-05-13T05:12:37;15.60;;;9.73;;
64520;SDS011;50896;46.714;17.322;2023-05-13T05:15:04;12.15;;;8.85;;
64520;SDS011;50896;46.714;17.322;2023-05-13T05:17:32;12.18;;;9.40;;
64520;SDS011;50896;46.714;17.322;2023-05-13T05:20:01;11.20;;;9.43;;
64520;SDS011;50896;46.714;17.322;2023-05-13T05:22:28;15.95;;;9.85;;
64520;SDS011;50896;46.714;17.322;2023-05-13T05:24:55;15.02;;;9.93;;
64520;SDS011;50896;46.714;17.322;2023-05-13T05:27:23;12.32;;;8.88;;
64520;SDS011;50896;46.714;17.322;2023-05-13T05:29:50;12.77;;;9.32;;
64520;SDS011;50896;46.714;17.322;2023-05-13T05:32:17;13.43;;;10.00;;
64520;SDS011;50896;46.714;17.322;2023-05-13T05:34:44;13.10;;;8.95;;
64520;SDS011;50896;46.714;17.322;2023-05-13T05:37:11;12.98;;;9.15;;
64520;SDS011;50896;46.714;17.322;2023-05-13T05:39:38;13.15;;;9.43;;
64520;SDS011;50896;46.714;17.322;2023-05-13T05:42:07;13.25;;;9.15;;
64520;SDS011;50896;46.714;17.322;2023-05-13T05:44:34;12.60;;;9.68;;
64520;SDS011;50896;46.714;17.322;2023-05-13T05:47:01;11.65;;;9.65;;
64520;SDS011;50896;46.714;17.322;2023-05-13T05:49:28;12.60;;;10.02;;
64520;SDS011;50896;46.714;17.322;2023-05-13T05:51:56;10.60;;;9.50;;
64520;SDS011;50896;46.714;17.322;2023-05-13T05:54:23;11.43;;;9.50;;
64520;SDS011;50896;46.714;17.322;2023-05-13T05:56:50;12.63;;;9.60;;
64520;SDS011;50896;46.714;17.322;2023-05-13T05:59:17;12.60;;;9.40;;
64520;SDS011;50896;46.714;17.322;2023-05-13T06:01:44;11.55;;;9.35;;
64520;SDS011;50896;46.714;17.322;2023-05-13T06:04:12;12.52;;;10.02;;
64520;SDS011;50896;46.714;17.322;2023-05-13T06:06:39;11.65;;;9.77;;
64520;SDS011;50896;46.714;17.322;2023-05-13T06:09:07;10.43;;;9.18;;
64520;SDS011;50896;46.714;17.322;2023-05-13T06:11:33;14.32;;;9.68;;
64520;SDS011;50896;46.714;17.322;2023-05-13T06:14:01;13.73;;;9.15;;
64520;SDS011;50896;46.714;17.322;2023-05-13T06:16:28;11.00;;;9.00;;
64520;SDS011;50896;46.714;17.322;2023-05-13T06:18:57;10.82;;;9.15;;
64520;SDS011;50896;46.714;17.322;2023-05-13T06:21:24;13.88;;;9.57;;
64520;SDS011;50896;46.714;17.322;2023-05-13T06:23:51;13.93;;;10.40;;
64520;SDS011;50896;46.714;17.322;2023-05-13T06:26:19;11.85;;;9.43;;
64520;SDS011;50896;46.714;17.322;2023-05-13T06:28:46;12.57;;;10.13;;
64520;SDS011;50896;46.714;17.322;2023-05-13T06:31:13;11.00;;;9.45;;
64520;SDS011;50896;46.714;17.322;2023-05-13T06:33:42;10.27;;;8.87;;
64520;SDS011;50896;46.714;17.322;2023-05-13T06:36:09;11.77;;;8.88;;
64520;SDS011;50896;46.714;17.322;2023-05-13T06:38:36;16.27;;;9.38;;
64520;SDS011;50896;46.714;17.322;2023-05-13T06:41:02;12.65;;;9.27;;
64520;SDS011;50896;46.714;17.322;2023-05-13T06:43:36;11.52;;;9.18;;
64520;SDS011;50896;46.714;17.322;2023-05-13T06:46:14;12.90;;;9.73;;
64520;SDS011;50896;46.714;17.322;2023-05-13T06:48:42;12.85;;;9.63;;
64520;SDS011;50896;46.714;17.322;2023-05-13T06:51:09;10.43;;;9.05;;
64520;SDS011;50896;46.714;17.322;2023-05-13T06:53:35;9.68;;;8.65;;
64520;SDS011;50896;46.714;17.322;2023-05-13T06:56:02;11.02;;;8.45;;
64520;SDS011;50896;46.714;17.322;2023-05-13T06:58:29;11.13;;;8.43;;
64520;SDS011;50896;46.714;17.322;2023-05-13T07:00:56;13.57;;;8.98;;
64520;SDS011;50896;46.714;17.322;2023-05-13T07:03:23;11.15;;;9.18;;
64520;SDS011;50896;46.714;17.322;2023-05-13T07:05:50;10.52;;;8.95;;
64520;SDS011;50896;46.714;17.322;2023-05-13T07:08:17;10.35;;;9.00;;
64520;SDS011;50896;46.714;17.322;2023-05-13T07:10:44;9.82;;;8.70;;
64520;SDS011;50896;46.714;17.322;2023-05-13T07:13:11;11.23;;;9.13;;
64520;SDS011;50896;46.714;17.322;2023-05-13T07:15:38;12.45;;;9.50;;
64520;SDS011;50896;46.714;17.322;2023-05-13T07:18:04;11.00;;;9.52;;
64520;SDS011;50896;46.714;17.322;2023-05-13T07:20:31;12.93;;;10.07;;
64520;SDS011;50896;46.714;17.322;2023-05-13T07:22:58;10.55;;;9.50;;
64520;SDS011;50896;46.714;17.322;2023-05-13T07:25:25;11.68;;;9.70;;
64520;SDS011;50896;46.714;17.322;2023-05-13T07:27:52;11.07;;;9.95;;
64520;SDS011;50896;46.714;17.322;2023-05-13T07:30:18;12.98;;;9.80;;
64520;SDS011;50896;46.714;17.322;2023-05-13T07:32:46;10.73;;;9.50;;
64520;SDS011;50896;46.714;17.322;2023-05-13T07:35:13;11.52;;;10.27;;
64520;SDS011;50896;46.714;17.322;2023-05-13T07:37:40;14.05;;;10.38;;
64520;SDS011;50896;46.714;17.322;2023-05-13T07:40:07;12.70;;;9.80;;
64520;SDS011;50896;46.714;17.322;2023-05-13T07:42:34;15.85;;;10.18;;
64520;SDS011;50896;46.714;17.322;2023-05-13T07:45:02;12.30;;;9.57;;
64520;SDS011;50896;46.714;17.322;2023-05-13T07:47:29;12.20;;;9.68;;
64520;SDS011;50896;46.714;17.322;2023-05-13T07:49:57;13.18;;;9.65;;
64520;SDS011;50896;46.714;17.322;2023-05-13T07:52:24;12.48;;;10.35;;
64520;SDS011;50896;46.714;17.322;2023-05-13T07:54:52;12.43;;;9.43;;
64520;SDS011;50896;46.714;17.322;2023-05-13T07:57:19;13.70;;;10.20;;
64520;SDS011;50896;46.714;17.322;2023-05-13T07:59:50;12.80;;;10.45;;
64520;SDS011;50896;46.714;17.322;2023-05-13T08:02:18;12.68;;;10.63;;
64520;SDS011;50896;46.714;17.322;2023-05-13T08:04:45;11.60;;;10.40;;
64520;SDS011;50896;46.714;17.322;2023-05-13T08:07:12;11.60;;;10.40;;
64520;SDS011;50896;46.714;17.322;2023-05-13T08:09:39;11.85;;;10.20;;
64520;SDS011;50896;46.714;17.322;2023-05-13T08:12:06;14.60;;;10.73;;
64520;SDS011;50896;46.714;17.322;2023-05-13T08:14:33;13.88;;;9.77;;
64520;SDS011;50896;46.714;17.322;2023-05-13T08:17:00;10.98;;;9.82;;
64520;SDS011;50896;46.714;17.322;2023-05-13T08:19:26;12.63;;;10.40;;
64520;SDS011;50896;46.714;17.322;2023-05-13T08:21:53;12.13;;;9.95;;
64520;SDS011;50896;46.714;17.322;2023-05-13T08:24:20;11.60;;;9.77;;
64520;SDS011;50896;46.714;17.322;2023-05-13T08:26:47;11.70;;;10.38;;
64520;SDS011;50896;46.714;17.322;2023-05-13T08:29:14;16.75;;;11.15;;
64520;SDS011;50896;46.714;17.322;2023-05-13T08:31:41;13.82;;;10.75;;
64520;SDS011;50896;46.714;17.322;2023-05-13T08:34:08;14.02;;;11.55;;
64520;SDS011;50896;46.714;17.322;2023-05-13T08:36:34;15.20;;;11.98;;
64520;SDS011;50896;46.714;17.322;2023-05-13T08:39:01;13.63;;;11.95;;
64520;SDS011;50896;46.714;17.322;2023-05-13T08:41:28;13.95;;;11.50;;
64520;SDS011;50896;46.714;17.322;2023-05-13T08:46:26;14.32;;;10.95;;
64520;SDS011;50896;46.714;17.322;2023-05-13T08:48:54;18.27;;;11.75;;
64520;SDS011;50896;46.714;17.322;2023-05-13T08:51:22;12.70;;;11.23;;
64520;SDS011;50896;46.714;17.322;2023-05-13T08:53:50;14.57;;;11.52;;
64520;SDS011;50896;46.714;17.322;2023-05-13T08:56:18;14.60;;;11.75;;
64520;SDS011;50896;46.714;17.322;2023-05-13T08:58:47;14.45;;;11.18;;
64520;SDS011;50896;46.714;17.322;2023-05-13T09:01:14;18.25;;;12.07;;
64520;SDS011;50896;46.714;17.322;2023-05-13T09:03:48;14.48;;;11.52;;
64520;SDS011;50896;46.714;17.322;2023-05-13T09:06:20;13.30;;;12.00;;
64520;SDS011;50896;46.714;17.322;2023-05-13T09:08:47;13.90;;;11.98;;
64520;SDS011;50896;46.714;17.322;2023-05-13T09:11:14;17.55;;;12.80;;
64520;SDS011;50896;46.714;17.322;2023-05-13T09:13:44;15.57;;;13.32;;
64520;SDS011;50896;46.714;17.322;2023-05-13T09:16:22;17.13;;;12.88;;
64520;SDS011;50896;46.714;17.322;2023-05-13T09:18:54;14.40;;;12.88;;
64520;SDS011;50896;46.714;17.322;2023-05-13T09:21:24;15.70;;;13.75;;
64520;SDS011;50896;46.714;17.322;2023-05-13T09:24:00;16.20;;;13.65;;
64520;SDS011;50896;46.714;17.322;2023-05-13T09:26:33;19.23;;;12.85;;
64520;SDS011;50896;46.714;17.322;2023-05-13T09:34:31;17.08;;;13.90;;
64520;SDS011;50896;46.714;17.322;2023-05-13T09:37:06;15.55;;;13.80;;
64520;SDS011;50896;46.714;17.322;2023-05-13T09:39:37;16.52;;;13.63;;
64520;SDS011;50896;46.714;17.322;2023-05-13T09:42:10;15.90;;;14.32;;
64520;SDS011;50896;46.714;17.322;2023-05-13T09:44:44;15.70;;;14.05;;
64520;SDS011;50896;46.714;17.322;2023-05-13T09:47:12;15.82;;;13.73;;
64520;SDS011;50896;46.714;17.322;2023-05-13T09:49:41;16.15;;;14.43;;
64520;SDS011;50896;46.714;17.322;2023-05-13T09:52:09;21.17;;;15.18;;
64520;SDS011;50896;46.714;17.322;2023-05-13T09:54:37;15.75;;;14.13;;
64520;SDS011;50896;46.714;17.322;2023-05-13T09:57:04;15.80;;;14.13;;
64520;SDS011;50896;46.714;17.322;2023-05-13T09:59:34;18.35;;;14.27;;
64520;SDS011;50896;46.714;17.322;2023-05-13T10:02:03;19.75;;;14.52;;
64520;SDS011;50896;46.714;17.322;2023-05-13T10:04:31;21.13;;;15.93;;
64520;SDS011;50896;46.714;17.322;2023-05-13T10:07:00;17.77;;;15.82;;
64520;SDS011;50896;46.714;17.322;2023-05-13T10:09:29;19.08;;;15.80;;
64520;SDS011;50896;46.714;17.322;2023-05-13T10:12:02;19.15;;;15.25;;
64520;SDS011;50896;46.714;17.322;2023-05-13T10:14:33;16.73;;;15.02;;
64520;SDS011;50896;46.714;17.322;2023-05-13T10:17:02;16.98;;;15.23;;
64520;SDS011;50896;46.714;17.322;2023-05-13T10:19:30;17.10;;;15.13;;
64520;SDS011;50896;46.714;17.322;2023-05-13T10:21:57;18.52;;;15.95;;
64520;SDS011;50896;46.714;17.322;2023-05-13T10:24:24;16.92;;;15.23;;
64520;SDS011;50896;46.714;17.322;2023-05-13T10:26:54;17.67;;;15.43;;
64520;SDS011;50896;46.714;17.322;2023-05-13T10:29:21;17.70;;;15.88;;
64520;SDS011;50896;46.714;17.322;2023-05-13T10:31:50;17.90;;;16.00;;
64520;SDS011;50896;46.714;17.322;2023-05-13T10:34:17;18.92;;;16.88;;
64520;SDS011;50896;46.714;17.322;2023-05-13T10:45:04;19.48;;;17.35;;
64520;SDS011;50896;46.714;17.322;2023-05-13T10:47:32;18.20;;;16.13;;
64520;SDS011;50896;46.714;17.322;2023-05-13T10:50:03;17.42;;;15.57;;
64520;SDS011;50896;46.714;17.322;2023-05-13T10:52:41;21.15;;;16.98;;
64520;SDS011;50896;46.714;17.322;2023-05-13T10:55:15;18.77;;;15.85;;
64520;SDS011;50896;46.714;17.322;2023-05-13T10:58:02;18.13;;;16.20;;
64520;SDS011;50896;46.714;17.322;2023-05-13T11:00:30;19.30;;;17.27;;
64520;SDS011;50896;46.714;17.322;2023-05-13T11:03:07;18.48;;;16.58;;
64520;SDS011;50896;46.714;17.322;2023-05-13T11:05:57;17.65;;;15.80;;
64520;SDS011;50896;46.714;17.322;2023-05-13T11:08:42;18.40;;;16.13;;
64520;SDS011;50896;46.714;17.322;2023-05-13T11:13:43;17.35;;;14.98;;
64520;SDS011;50896;46.714;17.322;2023-05-13T11:16:13;16.73;;;15.02;;
64520;SDS011;50896;46.714;17.322;2023-05-13T11:18:40;18.10;;;15.23;;
64520;SDS011;50896;46.714;17.322;2023-05-13T11:21:07;17.83;;;14.68;;
64520;SDS011;50896;46.714;17.322;2023-05-13T11:23:50;16.00;;;14.30;;
64520;SDS011;50896;46.714;17.322;2023-05-13T11:26:26;15.25;;;13.60;;
64520;SDS011;50896;46.714;17.322;2023-05-13T11:29:09;15.13;;;13.55;;
64520;SDS011;50896;46.714;17.322;2023-05-13T11:31:46;20.20;;;14.43;;
64520;SDS011;50896;46.714;17.322;2023-05-13T11:34:15;16.33;;;14.05;;
64520;SDS011;50896;46.714;17.322;2023-05-13T11:36:47;14.70;;;13.20;;
64520;SDS011;50896;46.714;17.322;2023-05-13T11:39:16;14.07;;;12.65;;
64520;SDS011;50896;46.714;17.322;2023-05-13T11:41:50;18.02;;;13.45;;
64520;SDS011;50896;46.714;17.322;2023-05-13T11:44:18;16.00;;;13.13;;
64520;SDS011;50896;46.714;17.322;2023-05-13T11:46:54;15.30;;;13.73;;
64520;SDS011;50896;46.714;17.322;2023-05-13T11:49:41;15.48;;;13.57;;
64520;SDS011;50896;46.714;17.322;2023-05-13T11:52:16;15.52;;;13.60;;
64520;SDS011;50896;46.714;17.322;2023-05-13T11:59:48;13.98;;;12.55;;
64520;SDS011;50896;46.714;17.322;2023-05-13T12:02:22;19.73;;;14.55;;
64520;SDS011;50896;46.714;17.322;2023-05-13T12:04:51;16.20;;;14.32;;
64520;SDS011;50896;46.714;17.322;2023-05-13T12:07:19;20.02;;;13.95;;
64520;SDS011;50896;46.714;17.322;2023-05-13T12:09:50;17.77;;;15.23;;
64520;SDS011;50896;46.714;17.322;2023-05-13T12:12:18;18.20;;;15.63;;
64520;SDS011;50896;46.714;17.322;2023-05-13T12:14:46;15.93;;;14.25;;
64520;SDS011;50896;46.714;17.322;2023-05-13T12:17:16;17.33;;;15.48;;
64520;SDS011;50896;46.714;17.322;2023-05-13T12:31:03;19.52;;;16.20;;
64520;SDS011;50896;46.714;17.322;2023-05-13T12:33:31;18.60;;;16.70;;
64520;SDS011;50896;46.714;17.322;2023-05-13T12:36:19;17.95;;;16.15;;
64520;SDS011;50896;46.714;17.322;2023-05-13T12:39:01;18.65;;;16.67;;
64520;SDS011;50896;46.714;17.322;2023-05-13T12:41:30;19.90;;;17.53;;
64520;SDS011;50896;46.714;17.322;2023-05-13T12:44:07;18.10;;;15.55;;
64520;SDS011;50896;46.714;17.322;2023-05-13T12:46:35;21.02;;;16.88;;
64520;SDS011;50896;46.714;17.322;2023-05-13T12:49:03;19.27;;;17.08;;
64520;SDS011;50896;46.714;17.322;2023-05-13T12:51:31;19.55;;;17.55;;
64520;SDS011;50896;46.714;17.322;2023-05-13T12:54:01;20.52;;;18.17;;
64520;SDS011;50896;46.714;17.322;2023-05-13T12:56:28;20.13;;;17.80;;
64520;SDS011;50896;46.714;17.322;2023-05-13T12:58:54;19.45;;;17.42;;
64520;SDS011;50896;46.714;17.322;2023-05-13T13:01:21;21.42;;;17.38;;
64520;SDS011;50896;46.714;17.322;2023-05-13T13:03:48;21.48;;;19.00;;
64520;SDS011;50896;46.714;17.322;2023-05-13T13:06:16;22.08;;;19.45;;
64520;SDS011;50896;46.714;17.322;2023-05-13T13:08:42;22.60;;;19.52;;
64520;SDS011;50896;46.714;17.322;2023-05-13T13:11:09;22.33;;;19.92;;
64520;SDS011;50896;46.714;17.322;2023-05-13T13:13:40;22.48;;;20.08;;
64520;SDS011;50896;46.714;17.322;2023-05-13T13:16:07;22.50;;;20.00;;
64520;SDS011;50896;46.714;17.322;2023-05-13T13:18:35;20.77;;;18.67;;
64520;SDS011;50896;46.714;17.322;2023-05-13T13:21:02;21.42;;;18.92;;
64520;SDS011;50896;46.714;17.322;2023-05-13T13:23:30;22.20;;;19.83;;
64520;SDS011;50896;46.714;17.322;2023-05-13T13:25:57;22.48;;;20.08;;
64520;SDS011;50896;46.714;17.322;2023-05-13T13:28:25;23.90;;;19.75;;
64520;SDS011;50896;46.714;17.322;2023-05-13T13:30:52;24.27;;;21.65;;
64520;SDS011;50896;46.714;17.322;2023-05-13T13:33:19;22.88;;;20.50;;
64520;SDS011;50896;46.714;17.322;2023-05-13T13:35:46;22.52;;;19.75;;
64520;SDS011;50896;46.714;17.322;2023-05-13T13:38:13;24.30;;;20.30;;
64520;SDS011;50896;46.714;17.322;2023-05-13T13:40:40;24.95;;;20.20;;
64520;SDS011;50896;46.714;17.322;2023-05-13T13:43:07;26.17;;;20.67;;
64520;SDS011;50896;46.714;17.322;2023-05-13T13:45:35;23.23;;;20.13;;
64520;SDS011;50896;46.714;17.322;2023-05-13T13:48:02;22.50;;;20.20;;
64520;SDS011;50896;46.714;17.322;2023-05-13T13:50:29;22.65;;;20.20;;
64520;SDS011;50896;46.714;17.322;2023-05-13T13:52:55;21.95;;;19.50;;
64520;SDS011;50896;46.714;17.322;2023-05-13T13:55:22;21.27;;;18.98;;
64520;SDS011;50896;46.714;17.322;2023-05-13T13:57:49;20.08;;;18.02;;
64520;SDS011;50896;46.714;17.322;2023-05-13T14:00:17;20.20;;;18.05;;
64520;SDS011;50896;46.714;17.322;2023-05-13T14:02:44;20.23;;;18.00;;
64520;SDS011;50896;46.714;17.322;2023-05-13T14:05:11;20.55;;;18.45;;
64520;SDS011;50896;46.714;17.322;2023-05-13T14:07:39;19.67;;;17.67;;
64520;SDS011;50896;46.714;17.322;2023-05-13T14:10:06;19.48;;;17.58;;
64520;SDS011;50896;46.714;17.322;2023-05-13T14:12:34;20.52;;;18.50;;
64520;SDS011;50896;46.714;17.322;2023-05-13T14:15:01;20.45;;;18.25;;
64520;SDS011;50896;46.714;17.322;2023-05-13T14:17:28;21.27;;;18.83;;
64520;SDS011;50896;46.714;17.322;2023-05-13T14:19:55;20.98;;;18.77;;
64520;SDS011;50896;46.714;17.322;2023-05-13T14:22:22;21.70;;;19.10;;
64520;SDS011;50896;46.714;17.322;2023-05-13T14:24:49;20.58;;;18.50;;
64520;SDS011;50896;46.714;17.322;2023-05-13T14:27:17;21.48;;;19.17;;
64520;SDS011;50896;46.714;17.322;2023-05-13T14:29:45;22.40;;;20.00;;
64520;SDS011;50896;46.714;17.322;2023-05-13T14:32:13;21.27;;;19.08;;
64520;SDS011;50896;46.714;17.322;2023-05-13T14:34:39;20.27;;;18.17;;
64520;SDS011;50896;46.714;17.322;2023-05-13T14:37:06;20.80;;;18.70;;
64520;SDS011;50896;46.714;17.322;2023-05-13T14:39:34;20.77;;;18.40;;
64520;SDS011;50896;46.714;17.322;2023-05-13T14:42:01;20.50;;;18.30;;
64520;SDS011;50896;46.714;17.322;2023-05-13T14:44:28;20.52;;;18.38;;
64520;SDS011;50896;46.714;17.322;2023-05-13T14:46:55;25.30;;;20.45;;
64520;SDS011;50896;46.714;17.322;2023-05-13T14:49:22;21.83;;;19.60;;
64520;SDS011;50896;46.714;17.322;2023-05-13T14:51:49;24.77;;;20.70;;
64520;SDS011;50896;46.714;17.322;2023-05-13T14:54:15;23.75;;;21.02;;
64520;SDS011;50896;46.714;17.322;2023-05-13T14:56:43;22.98;;;20.45;;
64520;SDS011;50896;46.714;17.322;2023-05-13T14:59:10;24.23;;;19.95;;
64520;SDS011;50896;46.714;17.322;2023-05-13T15:01:37;23.00;;;20.05;;
64520;SDS011;50896;46.714;17.322;2023-05-13T15:04:04;21.73;;;19.38;;
64520;SDS011;50896;46.714;17.322;2023-05-13T15:06:31;22.35;;;19.85;;
64520;SDS011;50896;46.714;17.322;2023-05-13T15:08:58;21.35;;;19.23;;